sensor_id;sensor_type;location;lat;lon;timestamp;P1;durP1;ratioP1;P2;durP2;ratioP2
43248;SDS011;29216;51.248;6.808;2024-01-16T00:00:52;13.63;;;6.70;;
43248;SDS011;29216;51.248;6.808;2024-01-16T00:03:17;13.38;;;6.85;;
43248;SDS011;29216;51.248;6.808;2024-01-16T00:05:43;8.07;;;6.05;;
43248;SDS011;29216;51.248;6.808;2024-01-16T00:08:09;10.07;;;6.50;;
43248;SDS011;29216;51.248;6.808;2024-01-16T00:10:35;11.15;;;5.47;;
43248;SDS011;29216;51.248;6.808;2024-01-16T00:13:01;9.32;;;5.38;;
43248;SDS011;29216;51.248;6.808;2024-01-16T00:15:27;8.00;;;4.82;;
43248;SDS011;29216;51.248;6.808;2024-01-16T00:17:53;6.88;;;4.47;;
43248;SDS011;29216;51.248;6.808;2024-01-16T00:20:19;9.02;;;5.10;;
43248;SDS011;29216;51.248;6.808;2024-01-16T00:22:47;7.28;;;5.20;;
43248;SDS011;29216;51.248;6.808;2024-01-16T00:25:13;8.52;;;4.70;;
43248;SDS011;29216;51.248;6.808;2024-01-16T00:27:39;5.97;;;4.15;;
43248;SDS011;29216;51.248;6.808;2024-01-16T00:30:05;7.47;;;4.63;;
43248;SDS011;29216;51.248;6.808;2024-01-16T00:32:31;8.30;;;5.30;;
43248;SDS011;29216;51.248;6.808;2024-01-16T00:34:57;13.13;;;5.88;;
43248;SDS011;29216;51.248;6.808;2024-01-16T00:37:24;9.05;;;6.60;;
43248;SDS011;29216;51.248;6.808;2024-01-16T00:39:50;8.63;;;5.50;;
43248;SDS011;29216;51.248;6.808;2024-01-16T00:42:16;10.70;;;5.93;;
43248;SDS011;29216;51.248;6.808;2024-01-16T00:44:42;9.52;;;6.47;;
43248;SDS011;29216;51.248;6.808;2024-01-16T00:47:08;10.85;;;6.30;;
43248;SDS011;29216;51.248;6.808;2024-01-16T00:49:35;15.52;;;6.70;;
43248;SDS011;29216;51.248;6.808;2024-01-16T00:52:01;11.05;;;5.93;;
43248;SDS011;29216;51.248;6.808;2024-01-16T00:54:27;12.25;;;6.50;;
43248;SDS011;29216;51.248;6.808;2024-01-16T00:56:53;10.05;;;5.60;;
43248;SDS011;29216;51.248;6.808;2024-01-16T00:59:24;10.40;;;6.32;;
43248;SDS011;29216;51.248;6.808;2024-01-16T01:01:50;8.30;;;5.85;;
43248;SDS011;29216;51.248;6.808;2024-01-16T01:04:16;10.40;;;6.10;;
43248;SDS011;29216;51.248;6.808;2024-01-16T01:06:42;9.98;;;6.30;;
43248;SDS011;29216;51.248;6.808;2024-01-16T01:09:08;10.38;;;6.65;;
43248;SDS011;29216;51.248;6.808;2024-01-16T01:11:37;13.05;;;6.80;;
43248;SDS011;29216;51.248;6.808;2024-01-16T01:14:03;8.82;;;6.60;;
43248;SDS011;29216;51.248;6.808;2024-01-16T01:16:29;9.55;;;7.03;;
43248;SDS011;29216;51.248;6.808;2024-01-16T01:18:58;16.15;;;8.02;;
43248;SDS011;29216;51.248;6.808;2024-01-16T01:21:24;11.15;;;7.85;;
43248;SDS011;29216;51.248;6.808;2024-01-16T01:23:50;15.68;;;9.32;;
43248;SDS011;29216;51.248;6.808;2024-01-16T01:26:16;15.68;;;10.07;;
43248;SDS011;29216;51.248;6.808;2024-01-16T01:28:45;13.65;;;9.95;;
43248;SDS011;29216;51.248;6.808;2024-01-16T01:31:11;11.65;;;9.13;;
43248;SDS011;29216;51.248;6.808;2024-01-16T01:33:37;13.95;;;9.40;;
43248;SDS011;29216;51.248;6.808;2024-01-16T01:36:04;13.32;;;9.68;;
43248;SDS011;29216;51.248;6.808;2024-01-16T01:38:30;17.42;;;9.43;;
43248;SDS011;29216;51.248;6.808;2024-01-16T01:40:56;14.60;;;9.73;;
43248;SDS011;29216;51.248;6.808;2024-01-16T01:43:22;17.48;;;10.60;;
43248;SDS011;29216;51.248;6.808;2024-01-16T01:48:27;16.63;;;9.65;;
43248;SDS011;29216;51.248;6.808;2024-01-16T01:50:53;14.00;;;9.80;;
43248;SDS011;29216;51.248;6.808;2024-01-16T01:53:19;14.32;;;9.13;;
43248;SDS011;29216;51.248;6.808;2024-01-16T01:55:46;15.65;;;9.68;;
43248;SDS011;29216;51.248;6.808;2024-01-16T01:58:15;17.80;;;10.25;;
43248;SDS011;29216;51.248;6.808;2024-01-16T02:00:41;12.35;;;9.38;;
43248;SDS011;29216;51.248;6.808;2024-01-16T02:03:07;12.80;;;9.35;;
43248;SDS011;29216;51.248;6.808;2024-01-16T02:05:33;16.70;;;9.90;;
43248;SDS011;29216;51.248;6.808;2024-01-16T02:07:59;12.52;;;8.63;;
43248;SDS011;29216;51.248;6.808;2024-01-16T02:10:25;20.55;;;9.10;;
43248;SDS011;29216;51.248;6.808;2024-01-16T02:12:54;14.70;;;8.52;;
43248;SDS011;29216;51.248;6.808;2024-01-16T02:15:20;16.42;;;9.23;;
43248;SDS011;29216;51.248;6.808;2024-01-16T02:17:47;11.90;;;8.75;;
43248;SDS011;29216;51.248;6.808;2024-01-16T02:20:13;15.63;;;9.63;;
43248;SDS011;29216;51.248;6.808;2024-01-16T02:22:39;11.95;;;8.63;;
43248;SDS011;29216;51.248;6.808;2024-01-16T02:25:05;11.18;;;8.40;;
43248;SDS011;29216;51.248;6.808;2024-01-16T02:27:32;17.85;;;9.75;;
43248;SDS011;29216;51.248;6.808;2024-01-16T02:29:58;13.52;;;9.50;;
43248;SDS011;29216;51.248;6.808;2024-01-16T02:32:23;15.00;;;9.38;;
43248;SDS011;29216;51.248;6.808;2024-01-16T02:34:49;15.90;;;9.52;;
43248;SDS011;29216;51.248;6.808;2024-01-16T02:37:15;20.65;;;10.13;;
43248;SDS011;29216;51.248;6.808;2024-01-16T02:39:41;17.80;;;10.02;;
43248;SDS011;29216;51.248;6.808;2024-01-16T02:42:07;13.45;;;9.98;;
43248;SDS011;29216;51.248;6.808;2024-01-16T02:44:33;17.40;;;10.43;;
43248;SDS011;29216;51.248;6.808;2024-01-16T02:46:59;13.10;;;9.68;;
43248;SDS011;29216;51.248;6.808;2024-01-16T02:49:25;18.20;;;11.13;;
43248;SDS011;29216;51.248;6.808;2024-01-16T02:51:51;15.30;;;9.80;;
43248;SDS011;29216;51.248;6.808;2024-01-16T02:54:17;22.67;;;10.43;;
43248;SDS011;29216;51.248;6.808;2024-01-16T02:56:44;16.35;;;9.85;;
43248;SDS011;29216;51.248;6.808;2024-01-16T02:59:10;16.42;;;10.27;;
43248;SDS011;29216;51.248;6.808;2024-01-16T03:01:36;13.95;;;9.80;;
43248;SDS011;29216;51.248;6.808;2024-01-16T03:04:02;15.68;;;10.15;;
43248;SDS011;29216;51.248;6.808;2024-01-16T03:06:28;19.95;;;10.40;;
43248;SDS011;29216;51.248;6.808;2024-01-16T03:08:54;16.13;;;9.68;;
43248;SDS011;29216;51.248;6.808;2024-01-16T03:11:20;14.43;;;10.13;;
43248;SDS011;29216;51.248;6.808;2024-01-16T03:13:47;21.05;;;11.05;;
43248;SDS011;29216;51.248;6.808;2024-01-16T03:16:14;16.92;;;10.38;;
43248;SDS011;29216;51.248;6.808;2024-01-16T03:18:40;16.35;;;10.32;;
43248;SDS011;29216;51.248;6.808;2024-01-16T03:21:07;15.73;;;10.70;;
43248;SDS011;29216;51.248;6.808;2024-01-16T03:23:33;15.30;;;10.10;;
43248;SDS011;29216;51.248;6.808;2024-01-16T03:25:59;15.35;;;10.43;;
43248;SDS011;29216;51.248;6.808;2024-01-16T03:28:25;13.80;;;9.57;;
43248;SDS011;29216;51.248;6.808;2024-01-16T03:30:51;13.85;;;9.60;;
43248;SDS011;29216;51.248;6.808;2024-01-16T03:33:18;13.20;;;10.10;;
43248;SDS011;29216;51.248;6.808;2024-01-16T03:35:45;15.80;;;9.23;;
43248;SDS011;29216;51.248;6.808;2024-01-16T03:38:12;15.02;;;9.23;;
43248;SDS011;29216;51.248;6.808;2024-01-16T03:40:38;20.95;;;10.02;;
43248;SDS011;29216;51.248;6.808;2024-01-16T03:43:04;15.10;;;9.27;;
43248;SDS011;29216;51.248;6.808;2024-01-16T03:45:30;16.45;;;8.95;;
43248;SDS011;29216;51.248;6.808;2024-01-16T03:47:56;16.27;;;8.40;;
43248;SDS011;29216;51.248;6.808;2024-01-16T03:50:22;10.07;;;8.00;;
43248;SDS011;29216;51.248;6.808;2024-01-16T03:52:48;15.93;;;8.45;;
43248;SDS011;29216;51.248;6.808;2024-01-16T03:55:14;12.20;;;8.40;;
43248;SDS011;29216;51.248;6.808;2024-01-16T03:57:40;16.10;;;7.72;;
43248;SDS011;29216;51.248;6.808;2024-01-16T04:00:11;14.63;;;8.13;;
43248;SDS011;29216;51.248;6.808;2024-01-16T04:02:37;11.60;;;7.32;;
43248;SDS011;29216;51.248;6.808;2024-01-16T04:05:04;11.43;;;7.47;;
43248;SDS011;29216;51.248;6.808;2024-01-16T04:07:30;14.15;;;7.30;;
43248;SDS011;29216;51.248;6.808;2024-01-16T04:09:56;12.88;;;7.70;;
43248;SDS011;29216;51.248;6.808;2024-01-16T04:12:22;10.40;;;7.43;;
43248;SDS011;29216;51.248;6.808;2024-01-16T04:14:48;10.52;;;6.68;;
43248;SDS011;29216;51.248;6.808;2024-01-16T04:17:14;11.52;;;6.35;;
43248;SDS011;29216;51.248;6.808;2024-01-16T04:19:40;10.68;;;6.30;;
43248;SDS011;29216;51.248;6.808;2024-01-16T04:22:06;9.18;;;6.22;;
43248;SDS011;29216;51.248;6.808;2024-01-16T04:24:32;10.25;;;7.07;;
43248;SDS011;29216;51.248;6.808;2024-01-16T04:26:58;10.30;;;6.95;;
43248;SDS011;29216;51.248;6.808;2024-01-16T04:29:24;8.07;;;5.85;;
43248;SDS011;29216;51.248;6.808;2024-01-16T04:31:50;12.45;;;6.18;;
43248;SDS011;29216;51.248;6.808;2024-01-16T04:34:16;9.43;;;5.60;;
43248;SDS011;29216;51.248;6.808;2024-01-16T04:36:42;10.18;;;5.57;;
43248;SDS011;29216;51.248;6.808;2024-01-16T04:39:08;8.93;;;6.50;;
43248;SDS011;29216;51.248;6.808;2024-01-16T04:41:34;9.80;;;5.80;;
43248;SDS011;29216;51.248;6.808;2024-01-16T04:44:01;10.75;;;6.28;;
43248;SDS011;29216;51.248;6.808;2024-01-16T04:46:27;9.70;;;6.15;;
43248;SDS011;29216;51.248;6.808;2024-01-16T04:48:54;10.10;;;6.05;;
43248;SDS011;29216;51.248;6.808;2024-01-16T04:51:20;10.88;;;6.80;;
43248;SDS011;29216;51.248;6.808;2024-01-16T04:53:46;8.77;;;6.05;;
43248;SDS011;29216;51.248;6.808;2024-01-16T04:56:12;9.00;;;6.78;;
43248;SDS011;29216;51.248;6.808;2024-01-16T04:58:38;10.52;;;6.45;;
43248;SDS011;29216;51.248;6.808;2024-01-16T05:01:04;9.90;;;7.50;;
43248;SDS011;29216;51.248;6.808;2024-01-16T05:03:30;8.70;;;6.57;;
43248;SDS011;29216;51.248;6.808;2024-01-16T05:05:56;11.30;;;7.15;;
43248;SDS011;29216;51.248;6.808;2024-01-16T05:08:22;12.80;;;7.82;;
43248;SDS011;29216;51.248;6.808;2024-01-16T05:10:49;13.18;;;7.32;;
43248;SDS011;29216;51.248;6.808;2024-01-16T05:13:15;10.13;;;7.28;;
43248;SDS011;29216;51.248;6.808;2024-01-16T05:15:41;13.07;;;8.10;;
43248;SDS011;29216;51.248;6.808;2024-01-16T05:18:07;10.88;;;7.80;;
43248;SDS011;29216;51.248;6.808;2024-01-16T05:20:34;17.27;;;8.02;;
43248;SDS011;29216;51.248;6.808;2024-01-16T05:23:00;19.58;;;7.63;;
43248;SDS011;29216;51.248;6.808;2024-01-16T05:25:26;11.55;;;7.63;;
43248;SDS011;29216;51.248;6.808;2024-01-16T05:27:52;18.70;;;8.57;;
43248;SDS011;29216;51.248;6.808;2024-01-16T05:30:18;15.85;;;7.18;;
43248;SDS011;29216;51.248;6.808;2024-01-16T05:32:44;13.32;;;7.63;;
43248;SDS011;29216;51.248;6.808;2024-01-16T05:35:10;15.98;;;7.53;;
43248;SDS011;29216;51.248;6.808;2024-01-16T05:37:36;15.52;;;9.07;;
43248;SDS011;29216;51.248;6.808;2024-01-16T05:40:02;12.43;;;7.45;;
43248;SDS011;29216;51.248;6.808;2024-01-16T05:42:29;11.90;;;6.95;;
43248;SDS011;29216;51.248;6.808;2024-01-16T05:44:55;16.08;;;7.10;;
43248;SDS011;29216;51.248;6.808;2024-01-16T05:47:21;14.63;;;6.88;;
43248;SDS011;29216;51.248;6.808;2024-01-16T05:49:49;13.90;;;7.43;;
43248;SDS011;29216;51.248;6.808;2024-01-16T05:52:15;10.60;;;6.18;;
43248;SDS011;29216;51.248;6.808;2024-01-16T05:54:41;12.30;;;5.75;;
43248;SDS011;29216;51.248;6.808;2024-01-16T05:57:07;13.02;;;6.75;;
43248;SDS011;29216;51.248;6.808;2024-01-16T05:59:33;19.77;;;7.63;;
43248;SDS011;29216;51.248;6.808;2024-01-16T06:01:59;13.32;;;5.80;;
43248;SDS011;29216;51.248;6.808;2024-01-16T06:04:25;12.63;;;6.37;;
43248;SDS011;29216;51.248;6.808;2024-01-16T06:06:51;10.98;;;5.60;;
43248;SDS011;29216;51.248;6.808;2024-01-16T06:09:17;11.13;;;5.78;;
43248;SDS011;29216;51.248;6.808;2024-01-16T06:11:43;14.00;;;6.53;;
43248;SDS011;29216;51.248;6.808;2024-01-16T06:14:09;11.40;;;5.70;;
43248;SDS011;29216;51.248;6.808;2024-01-16T06:16:37;15.40;;;6.10;;
43248;SDS011;29216;51.248;6.808;2024-01-16T06:19:03;20.23;;;5.70;;
43248;SDS011;29216;51.248;6.808;2024-01-16T06:21:29;12.50;;;6.07;;
43248;SDS011;29216;51.248;6.808;2024-01-16T06:23:55;16.60;;;5.78;;
43248;SDS011;29216;51.248;6.808;2024-01-16T06:26:21;21.60;;;6.03;;
43248;SDS011;29216;51.248;6.808;2024-01-16T06:28:47;13.40;;;5.50;;
43248;SDS011;29216;51.248;6.808;2024-01-16T06:31:13;12.70;;;5.80;;
43248;SDS011;29216;51.248;6.808;2024-01-16T06:33:39;14.70;;;5.60;;
43248;SDS011;29216;51.248;6.808;2024-01-16T06:36:06;22.07;;;6.37;;
43248;SDS011;29216;51.248;6.808;2024-01-16T06:38:32;12.73;;;5.60;;
43248;SDS011;29216;51.248;6.808;2024-01-16T06:40:58;11.90;;;5.67;;
43248;SDS011;29216;51.248;6.808;2024-01-16T06:43:24;12.50;;;5.20;;
43248;SDS011;29216;51.248;6.808;2024-01-16T06:45:50;11.63;;;5.23;;
43248;SDS011;29216;51.248;6.808;2024-01-16T06:48:16;17.37;;;5.50;;
43248;SDS011;29216;51.248;6.808;2024-01-16T06:50:45;12.07;;;5.30;;
43248;SDS011;29216;51.248;6.808;2024-01-16T06:53:11;11.00;;;4.77;;
43248;SDS011;29216;51.248;6.808;2024-01-16T06:55:38;18.52;;;6.65;;
43248;SDS011;29216;51.248;6.808;2024-01-16T06:58:04;13.53;;;4.93;;
43248;SDS011;29216;51.248;6.808;2024-01-16T07:00:30;12.40;;;5.30;;
43248;SDS011;29216;51.248;6.808;2024-01-16T07:02:56;15.57;;;5.03;;
43248;SDS011;29216;51.248;6.808;2024-01-16T07:05:23;12.53;;;4.43;;
43248;SDS011;29216;51.248;6.808;2024-01-16T07:07:49;10.57;;;4.90;;
43248;SDS011;29216;51.248;6.808;2024-01-16T07:10:15;11.07;;;3.83;;
43248;SDS011;29216;51.248;6.808;2024-01-16T07:12:46;20.47;;;4.60;;
43248;SDS011;29216;51.248;6.808;2024-01-16T07:15:12;13.37;;;4.77;;
43248;SDS011;29216;51.248;6.808;2024-01-16T07:17:38;8.27;;;4.57;;
43248;SDS011;29216;51.248;6.808;2024-01-16T07:20:05;14.47;;;4.63;;
43248;SDS011;29216;51.248;6.808;2024-01-16T07:22:31;15.33;;;5.23;;
43248;SDS011;29216;51.248;6.808;2024-01-16T07:24:57;10.63;;;4.55;;
43248;SDS011;29216;51.248;6.808;2024-01-16T07:27:23;11.82;;;4.30;;
43248;SDS011;29216;51.248;6.808;2024-01-16T07:29:49;15.23;;;3.63;;
43248;SDS011;29216;51.248;6.808;2024-01-16T07:32:15;6.57;;;3.60;;
43248;SDS011;29216;51.248;6.808;2024-01-16T07:34:41;12.03;;;4.00;;
43248;SDS011;29216;51.248;6.808;2024-01-16T07:37:07;8.87;;;4.37;;
43248;SDS011;29216;51.248;6.808;2024-01-16T07:39:33;12.27;;;4.63;;
43248;SDS011;29216;51.248;6.808;2024-01-16T07:41:59;15.32;;;3.85;;
43248;SDS011;29216;51.248;6.808;2024-01-16T07:44:25;10.83;;;3.73;;
43248;SDS011;29216;51.248;6.808;2024-01-16T07:46:51;9.15;;;3.70;;
43248;SDS011;29216;51.248;6.808;2024-01-16T07:49:17;12.05;;;4.57;;
43248;SDS011;29216;51.248;6.808;2024-01-16T07:51:43;12.13;;;3.92;;
43248;SDS011;29216;51.248;6.808;2024-01-16T07:54:09;9.50;;;3.97;;
43248;SDS011;29216;51.248;6.808;2024-01-16T07:56:38;12.75;;;3.97;;
43248;SDS011;29216;51.248;6.808;2024-01-16T07:59:04;12.80;;;4.53;;
43248;SDS011;29216;51.248;6.808;2024-01-16T08:01:30;14.10;;;3.80;;
43248;SDS011;29216;51.248;6.808;2024-01-16T08:03:56;10.95;;;3.75;;
43248;SDS011;29216;51.248;6.808;2024-01-16T08:06:22;10.18;;;3.60;;
43248;SDS011;29216;51.248;6.808;2024-01-16T08:08:49;12.68;;;3.70;;
43248;SDS011;29216;51.248;6.808;2024-01-16T08:11:15;6.20;;;3.13;;
43248;SDS011;29216;51.248;6.808;2024-01-16T08:13:41;10.35;;;3.30;;
43248;SDS011;29216;51.248;6.808;2024-01-16T08:16:07;9.75;;;3.55;;
43248;SDS011;29216;51.248;6.808;2024-01-16T08:18:33;18.50;;;4.10;;
43248;SDS011;29216;51.248;6.808;2024-01-16T08:20:59;10.32;;;4.10;;
43248;SDS011;29216;51.248;6.808;2024-01-16T08:23:25;10.05;;;3.90;;
43248;SDS011;29216;51.248;6.808;2024-01-16T08:25:52;8.90;;;3.60;;
43248;SDS011;29216;51.248;6.808;2024-01-16T08:28:18;10.93;;;3.35;;
43248;SDS011;29216;51.248;6.808;2024-01-16T08:30:44;14.63;;;3.80;;
43248;SDS011;29216;51.248;6.808;2024-01-16T08:33:11;7.32;;;3.58;;
43248;SDS011;29216;51.248;6.808;2024-01-16T08:35:37;12.73;;;4.20;;
43248;SDS011;29216;51.248;6.808;2024-01-16T08:38:03;7.65;;;3.80;;
43248;SDS011;29216;51.248;6.808;2024-01-16T08:40:30;13.23;;;4.25;;
43248;SDS011;29216;51.248;6.808;2024-01-16T08:42:56;9.65;;;4.53;;
43248;SDS011;29216;51.248;6.808;2024-01-16T08:45:22;10.18;;;3.85;;
43248;SDS011;29216;51.248;6.808;2024-01-16T08:47:48;8.85;;;3.67;;
43248;SDS011;29216;51.248;6.808;2024-01-16T08:50:14;11.10;;;3.75;;
43248;SDS011;29216;51.248;6.808;2024-01-16T08:52:41;13.25;;;5.03;;
43248;SDS011;29216;51.248;6.808;2024-01-16T08:55:07;10.40;;;3.80;;
43248;SDS011;29216;51.248;6.808;2024-01-16T08:57:34;8.40;;;3.25;;
43248;SDS011;29216;51.248;6.808;2024-01-16T09:00:01;8.02;;;3.85;;
43248;SDS011;29216;51.248;6.808;2024-01-16T09:02:28;11.75;;;3.60;;
43248;SDS011;29216;51.248;6.808;2024-01-16T09:04:55;11.02;;;3.63;;
43248;SDS011;29216;51.248;6.808;2024-01-16T09:07:21;12.40;;;3.90;;
43248;SDS011;29216;51.248;6.808;2024-01-16T09:09:47;12.35;;;4.03;;
43248;SDS011;29216;51.248;6.808;2024-01-16T09:12:14;12.77;;;3.80;;
43248;SDS011;29216;51.248;6.808;2024-01-16T09:14:40;11.52;;;4.25;;
43248;SDS011;29216;51.248;6.808;2024-01-16T09:17:06;14.57;;;3.88;;
43248;SDS011;29216;51.248;6.808;2024-01-16T09:19:32;9.48;;;3.80;;
43248;SDS011;29216;51.248;6.808;2024-01-16T09:21:58;7.43;;;3.85;;
43248;SDS011;29216;51.248;6.808;2024-01-16T09:24:24;9.75;;;3.60;;
43248;SDS011;29216;51.248;6.808;2024-01-16T09:26:50;13.43;;;4.40;;
43248;SDS011;29216;51.248;6.808;2024-01-16T09:29:16;9.27;;;4.10;;
43248;SDS011;29216;51.248;6.808;2024-01-16T09:31:42;13.13;;;4.15;;
43248;SDS011;29216;51.248;6.808;2024-01-16T09:34:08;10.40;;;3.83;;
43248;SDS011;29216;51.248;6.808;2024-01-16T09:36:34;10.45;;;3.97;;
43248;SDS011;29216;51.248;6.808;2024-01-16T09:39:02;8.48;;;3.20;;
43248;SDS011;29216;51.248;6.808;2024-01-16T09:41:28;8.48;;;3.55;;
43248;SDS011;29216;51.248;6.808;2024-01-16T09:43:57;12.25;;;4.15;;
43248;SDS011;29216;51.248;6.808;2024-01-16T09:46:23;6.35;;;2.97;;
43248;SDS011;29216;51.248;6.808;2024-01-16T09:48:50;12.55;;;4.45;;
43248;SDS011;29216;51.248;6.808;2024-01-16T09:51:19;9.70;;;4.18;;
43248;SDS011;29216;51.248;6.808;2024-01-16T09:53:45;10.07;;;3.67;;
43248;SDS011;29216;51.248;6.808;2024-01-16T09:56:15;6.18;;;3.30;;
43248;SDS011;29216;51.248;6.808;2024-01-16T09:58:42;10.57;;;4.15;;
43248;SDS011;29216;51.248;6.808;2024-01-16T10:01:08;12.38;;;3.97;;
43248;SDS011;29216;51.248;6.808;2024-01-16T10:03:38;15.10;;;4.40;;
43248;SDS011;29216;51.248;6.808;2024-01-16T10:06:04;10.98;;;4.30;;
43248;SDS011;29216;51.248;6.808;2024-01-16T10:08:31;10.02;;;3.78;;
43248;SDS011;29216;51.248;6.808;2024-01-16T10:10:58;11.40;;;4.13;;
43248;SDS011;29216;51.248;6.808;2024-01-16T10:13:25;14.93;;;4.55;;
43248;SDS011;29216;51.248;6.808;2024-01-16T10:15:51;11.93;;;4.07;;
43248;SDS011;29216;51.248;6.808;2024-01-16T10:18:26;16.17;;;4.68;;
43248;SDS011;29216;51.248;6.808;2024-01-16T10:20:52;10.77;;;3.63;;
43248;SDS011;29216;51.248;6.808;2024-01-16T10:23:25;7.18;;;3.72;;
43248;SDS011;29216;51.248;6.808;2024-01-16T10:28:36;13.55;;;3.78;;
43248;SDS011;29216;51.248;6.808;2024-01-16T10:31:03;8.63;;;3.35;;
43248;SDS011;29216;51.248;6.808;2024-01-16T10:33:29;8.23;;;3.42;;
43248;SDS011;29216;51.248;6.808;2024-01-16T10:36:08;10.07;;;4.07;;
43248;SDS011;29216;51.248;6.808;2024-01-16T10:38:38;10.30;;;3.58;;
43248;SDS011;29216;51.248;6.808;2024-01-16T10:41:11;10.85;;;3.88;;
43248;SDS011;29216;51.248;6.808;2024-01-16T10:43:37;11.25;;;4.22;;
43248;SDS011;29216;51.248;6.808;2024-01-16T10:46:10;10.27;;;4.10;;
43248;SDS011;29216;51.248;6.808;2024-01-16T10:48:37;12.70;;;3.83;;
43248;SDS011;29216;51.248;6.808;2024-01-16T10:51:04;9.50;;;3.60;;
43248;SDS011;29216;51.248;6.808;2024-01-16T10:53:32;10.55;;;4.38;;
43248;SDS011;29216;51.248;6.808;2024-01-16T10:55:58;10.45;;;3.53;;
43248;SDS011;29216;51.248;6.808;2024-01-16T10:58:25;7.82;;;3.42;;
43248;SDS011;29216;51.248;6.808;2024-01-16T11:00:54;14.48;;;3.95;;
43248;SDS011;29216;51.248;6.808;2024-01-16T11:03:25;13.45;;;4.03;;
43248;SDS011;29216;51.248;6.808;2024-01-16T11:05:57;12.73;;;4.70;;
43248;SDS011;29216;51.248;6.808;2024-01-16T11:08:23;11.02;;;3.83;;
43248;SDS011;29216;51.248;6.808;2024-01-16T11:10:55;10.60;;;3.58;;
43248;SDS011;29216;51.248;6.808;2024-01-16T11:13:22;9.18;;;3.40;;
43248;SDS011;29216;51.248;6.808;2024-01-16T11:15:52;7.18;;;4.10;;
43248;SDS011;29216;51.248;6.808;2024-01-16T11:18:18;13.40;;;4.97;;
43248;SDS011;29216;51.248;6.808;2024-01-16T11:20:45;16.40;;;4.20;;
43248;SDS011;29216;51.248;6.808;2024-01-16T11:23:11;12.18;;;3.90;;
43248;SDS011;29216;51.248;6.808;2024-01-16T11:25:37;8.85;;;4.07;;
43248;SDS011;29216;51.248;6.808;2024-01-16T11:28:07;12.27;;;4.25;;
43248;SDS011;29216;51.248;6.808;2024-01-16T11:30:35;12.75;;;4.78;;
43248;SDS011;29216;51.248;6.808;2024-01-16T11:33:00;6.97;;;3.70;;
43248;SDS011;29216;51.248;6.808;2024-01-16T11:35:33;10.82;;;3.50;;
43248;SDS011;29216;51.248;6.808;2024-01-16T11:40:55;11.10;;;4.25;;
43248;SDS011;29216;51.248;6.808;2024-01-16T11:46:00;7.57;;;3.72;;
43248;SDS011;29216;51.248;6.808;2024-01-16T11:48:26;9.23;;;4.13;;
43248;SDS011;29216;51.248;6.808;2024-01-16T11:50:53;12.98;;;4.20;;
43248;SDS011;29216;51.248;6.808;2024-01-16T11:53:37;8.00;;;3.83;;
43248;SDS011;29216;51.248;6.808;2024-01-16T12:01:11;12.20;;;4.20;;
43248;SDS011;29216;51.248;6.808;2024-01-16T12:03:37;9.45;;;3.90;;
43248;SDS011;29216;51.248;6.808;2024-01-16T12:06:03;10.57;;;4.38;;
43248;SDS011;29216;51.248;6.808;2024-01-16T12:08:31;10.40;;;3.95;;
43248;SDS011;29216;51.248;6.808;2024-01-16T12:10:57;14.10;;;4.13;;
43248;SDS011;29216;51.248;6.808;2024-01-16T12:13:26;12.77;;;4.45;;
43248;SDS011;29216;51.248;6.808;2024-01-16T12:16:01;14.65;;;5.10;;
43248;SDS011;29216;51.248;6.808;2024-01-16T12:18:29;11.00;;;3.85;;
43248;SDS011;29216;51.248;6.808;2024-01-16T12:20:55;11.27;;;4.05;;
43248;SDS011;29216;51.248;6.808;2024-01-16T12:23:24;9.85;;;4.20;;
43248;SDS011;29216;51.248;6.808;2024-01-16T12:25:53;12.15;;;5.05;;
43248;SDS011;29216;51.248;6.808;2024-01-16T12:28:20;8.43;;;3.97;;
43248;SDS011;29216;51.248;6.808;2024-01-16T12:30:49;12.13;;;4.40;;
43248;SDS011;29216;51.248;6.808;2024-01-16T12:33:16;10.93;;;4.40;;
43248;SDS011;29216;51.248;6.808;2024-01-16T12:35:43;9.65;;;3.90;;
43248;SDS011;29216;51.248;6.808;2024-01-16T12:38:12;12.85;;;4.32;;
43248;SDS011;29216;51.248;6.808;2024-01-16T12:40:42;8.77;;;3.85;;
43248;SDS011;29216;51.248;6.808;2024-01-16T12:43:09;12.20;;;5.25;;
43248;SDS011;29216;51.248;6.808;2024-01-16T12:45:35;9.25;;;4.30;;
43248;SDS011;29216;51.248;6.808;2024-01-16T12:48:01;10.85;;;3.97;;
43248;SDS011;29216;51.248;6.808;2024-01-16T12:50:30;7.95;;;3.83;;
43248;SDS011;29216;51.248;6.808;2024-01-16T12:53:00;13.75;;;3.95;;
43248;SDS011;29216;51.248;6.808;2024-01-16T12:55:26;11.10;;;4.05;;
43248;SDS011;29216;51.248;6.808;2024-01-16T13:00:37;7.97;;;4.10;;
43248;SDS011;29216;51.248;6.808;2024-01-16T13:03:04;13.20;;;3.95;;
43248;SDS011;29216;51.248;6.808;2024-01-16T13:05:30;11.70;;;3.80;;
43248;SDS011;29216;51.248;6.808;2024-01-16T13:08:00;23.30;;;5.22;;
43248;SDS011;29216;51.248;6.808;2024-01-16T13:10:29;14.50;;;4.72;;
43248;SDS011;29216;51.248;6.808;2024-01-16T13:13:13;8.90;;;3.72;;
43248;SDS011;29216;51.248;6.808;2024-01-16T13:15:39;10.37;;;3.50;;
43248;SDS011;29216;51.248;6.808;2024-01-16T13:18:05;7.35;;;3.75;;
43248;SDS011;29216;51.248;6.808;2024-01-16T13:20:31;10.70;;;3.92;;
43248;SDS011;29216;51.248;6.808;2024-01-16T13:22:58;10.77;;;4.00;;
43248;SDS011;29216;51.248;6.808;2024-01-16T13:25:27;8.32;;;4.18;;
43248;SDS011;29216;51.248;6.808;2024-01-16T13:27:53;9.98;;;4.20;;
43248;SDS011;29216;51.248;6.808;2024-01-16T13:30:19;12.02;;;3.83;;
43248;SDS011;29216;51.248;6.808;2024-01-16T13:32:45;11.98;;;4.32;;
43248;SDS011;29216;51.248;6.808;2024-01-16T13:35:11;8.68;;;3.95;;
43248;SDS011;29216;51.248;6.808;2024-01-16T13:37:37;13.73;;;4.05;;
43248;SDS011;29216;51.248;6.808;2024-01-16T13:40:04;9.68;;;4.15;;
43248;SDS011;29216;51.248;6.808;2024-01-16T13:42:33;11.85;;;4.63;;
43248;SDS011;29216;51.248;6.808;2024-01-16T13:45:00;8.60;;;3.92;;
43248;SDS011;29216;51.248;6.808;2024-01-16T13:47:26;8.48;;;4.05;;
43248;SDS011;29216;51.248;6.808;2024-01-16T13:49:52;11.10;;;4.32;;
43248;SDS011;29216;51.248;6.808;2024-01-16T13:52:18;13.18;;;4.45;;
43248;SDS011;29216;51.248;6.808;2024-01-16T13:54:44;12.18;;;4.20;;
43248;SDS011;29216;51.248;6.808;2024-01-16T13:57:10;10.85;;;4.45;;
43248;SDS011;29216;51.248;6.808;2024-01-16T13:59:36;11.93;;;4.65;;
43248;SDS011;29216;51.248;6.808;2024-01-16T14:02:03;14.65;;;4.47;;
43248;SDS011;29216;51.248;6.808;2024-01-16T14:04:30;11.38;;;4.38;;
43248;SDS011;29216;51.248;6.808;2024-01-16T14:06:56;12.00;;;4.45;;
43248;SDS011;29216;51.248;6.808;2024-01-16T14:09:22;9.55;;;4.18;;
43248;SDS011;29216;51.248;6.808;2024-01-16T14:11:48;10.15;;;3.97;;
43248;SDS011;29216;51.248;6.808;2024-01-16T14:14:14;10.82;;;4.82;;
43248;SDS011;29216;51.248;6.808;2024-01-16T14:16:41;7.05;;;3.78;;
43248;SDS011;29216;51.248;6.808;2024-01-16T14:19:07;13.30;;;4.53;;
43248;SDS011;29216;51.248;6.808;2024-01-16T14:21:33;8.50;;;4.20;;
43248;SDS011;29216;51.248;6.808;2024-01-16T14:23:59;13.93;;;4.85;;
43248;SDS011;29216;51.248;6.808;2024-01-16T14:26:25;10.45;;;4.72;;
43248;SDS011;29216;51.248;6.808;2024-01-16T14:28:51;8.32;;;4.05;;
43248;SDS011;29216;51.248;6.808;2024-01-16T14:31:17;9.48;;;4.07;;
43248;SDS011;29216;51.248;6.808;2024-01-16T14:33:43;8.88;;;4.47;;
43248;SDS011;29216;51.248;6.808;2024-01-16T14:36:08;7.90;;;4.13;;
43248;SDS011;29216;51.248;6.808;2024-01-16T14:38:34;9.20;;;4.13;;
43248;SDS011;29216;51.248;6.808;2024-01-16T14:41:00;10.07;;;4.38;;
43248;SDS011;29216;51.248;6.808;2024-01-16T14:43:28;12.35;;;4.85;;
43248;SDS011;29216;51.248;6.808;2024-01-16T14:45:54;10.43;;;4.35;;
43248;SDS011;29216;51.248;6.808;2024-01-16T14:48:23;9.98;;;4.60;;
43248;SDS011;29216;51.248;6.808;2024-01-16T14:50:49;9.80;;;4.25;;